Terminal Aerodrome Forecast
Issued by NWS Wilmington, NC

Home | Current Version | Previous Version | Text Only | Print | Product List | Glossary On
Versions: 1 2 3 4 5 6 7 8 9 10 11 12 13 14 15
000
FTUS42 KILM 192300
TAFFLO
TAF
KFLO 192329Z 2000/2024 04014G20KT P6SM VCSH OVC007
      TEMPO 2000/2004 3SM BR
     FM200400 04014G25KT 6SM -RA OVC008
     FM200800 03015G27KT P6SM -RA BKN010 OVC025
     FM201500 03015G22KT P6SM VCSH OVC025=

USA.gov is the U.S. government's official web portal to all federal, state and local government web resources and services.